TimeCDT,TemperatureF,Dew PointF,Humidity,Sea Level PressureIn,VisibilityMPH,Wind Direction,Wind SpeedMPH,Gust SpeedMPH,PrecipitationIn,Events,Conditions,WindDirDegrees,DateUTC
12:53 AM,27.0,21.0,78,30.19,10.0,SW,5.8,-,N/A,,Clear,220,2012-10-07 05:53:00
1:53 AM,26.1,21.0,81,30.18,10.0,SW,6.9,-,N/A,,Clear,230,2012-10-07 06:53:00
2:53 AM,28.0,23.0,81,30.15,10.0,SW,5.8,-,N/A,,Clear,220,2012-10-07 07:53:00
3:53 AM,28.0,23.0,81,30.13,10.0,SW,6.9,-,N/A,,Clear,220,2012-10-07 08:53:00
4:53 AM,28.0,21.9,78,30.12,10.0,SW,6.9,-,N/A,,Clear,220,2012-10-07 09:53:00
5:53 AM,27.0,21.9,81,30.10,10.0,SSW,5.8,-,N/A,,Clear,210,2012-10-07 10:53:00
6:53 AM,27.0,21.9,81,30.09,10.0,SW,5.8,-,N/A,,Partly Cloudy,230,2012-10-07 11:53:00
7:53 AM,28.0,23.0,81,30.08,10.0,SW,6.9,-,N/A,,Partly Cloudy,220,2012-10-07 12:53:00
8:53 AM,32.0,24.1,73,30.06,10.0,SW,10.4,-,N/A,,Clear,230,2012-10-07 13:53:00
9:53 AM,36.0,24.1,62,30.05,10.0,WSW,10.4,18.4,N/A,,Partly Cloudy,240,2012-10-07 14:53:00
10:53 AM,39.9,23.0,51,30.04,10.0,SW,11.5,-,N/A,,Partly Cloudy,230,2012-10-07 15:53:00
11:53 AM,44.1,21.0,40,30.02,10.0,SW,13.8,-,N/A,,Scattered Clouds,230,2012-10-07 16:53:00
12:53 PM,48.9,19.9,32,29.99,10.0,SW,11.5,-,N/A,,Clear,220,2012-10-07 17:53:00
1:53 PM,50.0,18.0,28,29.95,10.0,SW,17.3,24.2,N/A,,Clear,230,2012-10-07 18:53:00
2:53 PM,50.0,19.9,31,29.93,10.0,SW,13.8,19.6,N/A,,Overcast,220,2012-10-07 19:53:00
3:53 PM,53.1,19.0,26,29.89,10.0,SW,15.0,-,N/A,,Clear,230,2012-10-07 20:53:00
4:53 PM,52.0,19.9,28,29.88,10.0,WSW,15.0,23.0,N/A,,Clear,250,2012-10-07 21:53:00
5:53 PM,51.1,19.9,29,29.86,10.0,WSW,11.5,-,N/A,,Clear,240,2012-10-07 22:53:00
6:53 PM,44.1,19.9,38,29.86,10.0,SW,6.9,-,N/A,,Clear,220,2012-10-07 23:53:00
7:53 PM,42.1,21.0,43,29.86,10.0,South,5.8,-,N/A,,Clear,170,2012-10-08 00:53:00
8:53 PM,39.9,21.9,49,29.85,10.0,SSE,5.8,-,N/A,,Scattered Clouds,160,2012-10-08 01:53:00
9:53 PM,36.0,21.9,57,29.83,10.0,South,6.9,-,N/A,,Partly Cloudy,170,2012-10-08 02:53:00
10:53 PM,37.0,21.0,52,29.82,10.0,Calm,Calm,-,N/A,,Mostly Cloudy,0,2012-10-08 03:53:00
11:53 PM,39.0,21.0,49,29.79,10.0,South,5.8,-,N/A,,Overcast,180,2012-10-08 04:53:00